createdAt,value
2022-12-27T00:01:21.528Z,1
2022-12-27T00:03:05.282Z,1
2022-12-27T00:04:48.888Z,1
2022-12-27T00:06:32.603Z,1
2022-12-27T00:08:16.351Z,1
2022-12-27T00:10:00.033Z,1
2022-12-27T00:11:43.727Z,2
2022-12-27T00:13:27.419Z,1
2022-12-27T00:15:11.128Z,1
2022-12-27T00:16:54.832Z,1
2022-12-27T00:18:38.518Z,1
2022-12-27T00:20:22.226Z,0
2022-12-27T00:22:05.938Z,1
2022-12-27T00:23:49.639Z,2
2022-12-27T00:25:33.348Z,2
2022-12-27T00:27:17.030Z,1
2022-12-27T00:29:00.764Z,1
2022-12-27T00:30:44.464Z,1
2022-12-27T00:32:28.142Z,1
2022-12-27T00:34:11.846Z,1
2022-12-27T00:35:55.557Z,1
2022-12-27T00:37:39.250Z,1
2022-12-27T00:39:22.931Z,1
2022-12-27T00:41:06.667Z,2
2022-12-27T00:42:50.357Z,1
2022-12-27T00:44:34.069Z,1
2022-12-27T00:46:17.779Z,2
2022-12-27T00:48:01.449Z,1
2022-12-27T00:49:45.146Z,1
2022-12-27T00:51:28.876Z,1
2022-12-27T00:53:12.550Z,0
2022-12-27T00:54:56.263Z,0
2022-12-27T00:56:39.969Z,0
2022-12-27T00:58:23.762Z,0
2022-12-27T01:00:07.365Z,0
2022-12-27T01:01:51.054Z,1
2022-12-27T01:03:34.759Z,1
2022-12-27T01:05:18.457Z,0
2022-12-27T01:07:02.157Z,0
2022-12-27T01:08:45.889Z,0
2022-12-27T01:10:29.569Z,0
2022-12-27T01:12:13.276Z,0
2022-12-27T01:13:56.959Z,0
2022-12-27T01:15:40.674Z,0
2022-12-27T01:17:24.385Z,0
2022-12-27T01:19:08.085Z,0
2022-12-27T01:20:51.798Z,1
2022-12-27T01:22:35.565Z,0
2022-12-27T01:24:19.168Z,0
2022-12-27T01:26:02.873Z,0
2022-12-27T01:27:46.635Z,0
2022-12-27T01:29:30.278Z,0
2022-12-27T01:31:13.997Z,0
2022-12-27T01:32:57.686Z,0
2022-12-27T01:34:41.460Z,0
2022-12-27T01:36:25.108Z,0
2022-12-27T01:38:08.791Z,0
2022-12-27T01:39:52.581Z,0
2022-12-27T01:41:36.200Z,1
2022-12-27T01:43:19.903Z,0
2022-12-27T01:45:03.603Z,0
2022-12-27T01:46:47.314Z,0
2022-12-27T01:48:31.009Z,1
2022-12-27T01:50:14.715Z,0
2022-12-27T01:51:58.419Z,0
2022-12-27T01:53:42.115Z,0
2022-12-27T01:55:26.099Z,0
2022-12-27T01:57:09.531Z,0
2022-12-27T01:58:53.250Z,1
2022-12-27T02:00:36.938Z,0
2022-12-27T02:02:20.632Z,0
2022-12-27T02:04:04.333Z,1
2022-12-27T02:05:48.075Z,0
2022-12-27T02:07:31.743Z,0
2022-12-27T02:09:15.456Z,0
2022-12-27T02:10:59.159Z,0
2022-12-27T02:12:42.858Z,0
2022-12-27T02:14:26.538Z,0
2022-12-27T02:16:10.348Z,0
2022-12-27T02:17:53.956Z,0
2022-12-27T02:19:37.662Z,0
2022-12-27T02:21:21.556Z,0
2022-12-27T02:23:05.050Z,0
2022-12-27T02:24:48.754Z,1
2022-12-27T02:26:32.456Z,0
2022-12-27T02:28:16.156Z,0
2022-12-27T02:29:59.866Z,0
2022-12-27T02:31:43.593Z,0
2022-12-27T02:33:27.271Z,0
2022-12-27T02:35:10.952Z,0
2022-12-27T02:36:54.675Z,0
2022-12-27T02:38:38.353Z,0
2022-12-27T02:40:22.081Z,1
2022-12-27T02:42:05.861Z,0
2022-12-27T02:43:49.480Z,0
2022-12-27T02:45:33.182Z,0
2022-12-27T02:47:16.872Z,0
2022-12-27T02:49:00.590Z,0
2022-12-27T02:50:44.298Z,0
2022-12-27T02:52:28.048Z,0
2022-12-27T02:54:11.700Z,0
2022-12-27T02:55:55.401Z,0
2022-12-27T02:57:39.099Z,0
2022-12-27T02:59:22.992Z,0
2022-12-27T03:01:06.499Z,0
2022-12-27T03:02:50.209Z,0
2022-12-27T03:04:33.901Z,0
2022-12-27T03:06:17.598Z,1
2022-12-27T03:08:01.365Z,0
2022-12-27T03:09:44.998Z,0
2022-12-27T03:11:28.709Z,0
2022-12-27T03:13:12.404Z,0
2022-12-27T03:14:56.104Z,0
2022-12-27T03:16:39.816Z,0
2022-12-27T03:18:23.507Z,0
2022-12-27T03:20:07.235Z,0
2022-12-27T03:21:50.908Z,0
2022-12-27T03:23:34.626Z,0
2022-12-27T03:25:18.304Z,1
2022-12-27T03:27:02.019Z,0
2022-12-27T03:28:45.746Z,0
2022-12-27T03:30:29.504Z,0
2022-12-27T03:32:13.122Z,0
2022-12-27T03:33:56.863Z,0
2022-12-27T03:35:40.538Z,0
2022-12-27T03:37:24.228Z,0
2022-12-27T03:39:07.964Z,0
2022-12-27T03:40:51.653Z,0
2022-12-27T03:42:35.336Z,0
2022-12-27T03:44:19.064Z,0
2022-12-27T03:46:02.758Z,0
2022-12-27T03:47:46.445Z,0
2022-12-27T03:49:30.158Z,0
2022-12-27T03:51:13.850Z,0
2022-12-27T03:52:57.566Z,0
2022-12-27T03:54:41.249Z,0
2022-12-27T03:56:24.954Z,1
2022-12-27T03:58:08.686Z,0
2022-12-27T03:59:52.367Z,0
2022-12-27T04:01:36.069Z,0
2022-12-27T04:03:19.773Z,0
2022-12-27T04:05:03.470Z,0
2022-12-27T04:06:47.169Z,0
2022-12-27T04:08:30.897Z,0
2022-12-27T04:10:14.603Z,0
2022-12-27T04:11:58.287Z,0
2022-12-27T04:13:41.984Z,0
2022-12-27T04:15:25.685Z,0
2022-12-27T04:17:09.367Z,0
2022-12-27T04:18:53.081Z,1
2022-12-27T04:20:36.789Z,0
2022-12-27T04:22:20.489Z,0
2022-12-27T04:24:04.181Z,0
2022-12-27T04:25:47.890Z,1
2022-12-27T04:27:31.599Z,0
2022-12-27T04:29:15.282Z,0
2022-12-27T04:30:58.985Z,0
2022-12-27T04:32:42.697Z,0
2022-12-27T04:34:26.388Z,0
2022-12-27T04:36:10.101Z,0
2022-12-27T04:37:53.790Z,1
2022-12-27T04:39:37.493Z,0
2022-12-27T04:41:21.188Z,0
2022-12-27T04:43:04.901Z,0
2022-12-27T04:44:48.589Z,0
2022-12-27T04:46:32.296Z,0
2022-12-27T04:48:16.000Z,1
2022-12-27T04:49:59.704Z,0
2022-12-27T04:51:43.415Z,0
2022-12-27T04:53:27.103Z,0
2022-12-27T04:55:10.807Z,0
2022-12-27T04:56:54.503Z,0
2022-12-27T04:58:38.208Z,0
2022-12-27T05:00:21.925Z,0
2022-12-27T05:03:49.325Z,0
2022-12-27T05:05:33.022Z,1
2022-12-27T05:07:16.735Z,0
2022-12-27T05:09:00.420Z,0
2022-12-27T05:10:44.138Z,0
2022-12-27T05:12:27.849Z,0
2022-12-27T05:14:11.527Z,1
2022-12-27T05:15:55.230Z,0
2022-12-27T05:17:38.945Z,0
2022-12-27T05:19:22.631Z,0
2022-12-27T05:21:06.341Z,0
2022-12-27T05:22:50.062Z,0
2022-12-27T05:24:33.912Z,0
2022-12-27T05:26:17.459Z,0
2022-12-27T05:28:01.165Z,0
2022-12-27T05:29:44.899Z,1
2022-12-27T05:31:28.627Z,0
2022-12-27T05:33:12.262Z,0
2022-12-27T05:34:56.029Z,0
2022-12-27T05:36:39.698Z,0
2022-12-27T05:38:23.361Z,0
2022-12-27T05:40:07.125Z,0
2022-12-27T05:41:50.789Z,0
2022-12-27T05:43:34.471Z,0
2022-12-27T05:45:18.255Z,0
2022-12-27T05:47:02.077Z,1
2022-12-27T05:48:45.576Z,0
2022-12-27T05:50:29.370Z,0
2022-12-27T05:52:13.074Z,0
2022-12-27T05:53:56.765Z,0
2022-12-27T05:55:40.410Z,0
2022-12-27T05:57:24.078Z,0
2022-12-27T05:59:07.783Z,0
2022-12-27T06:00:51.567Z,0
2022-12-27T06:02:35.272Z,0
2022-12-27T06:06:02.633Z,0
2022-12-27T06:07:46.425Z,1
2022-12-27T06:09:30.086Z,1
2022-12-27T06:11:13.718Z,0
2022-12-27T06:12:57.519Z,0
2022-12-27T06:14:41.229Z,0
2022-12-27T06:16:24.921Z,0
2022-12-27T06:18:08.578Z,0
2022-12-27T06:19:52.216Z,0
2022-12-27T06:21:36.037Z,0
2022-12-27T06:23:19.643Z,0
2022-12-27T06:25:03.358Z,0
2022-12-27T06:26:47.146Z,0
2022-12-27T06:28:30.730Z,0
2022-12-27T06:30:14.739Z,0
2022-12-27T06:31:58.228Z,0
2022-12-27T06:33:41.872Z,0
2022-12-27T06:35:25.605Z,0
2022-12-27T06:37:09.353Z,0
2022-12-27T06:38:52.967Z,0
2022-12-27T06:40:36.727Z,0
2022-12-27T06:42:20.354Z,0
2022-12-27T06:44:04.104Z,0
2022-12-27T06:45:47.763Z,0
2022-12-27T06:47:31.534Z,0
2022-12-27T06:49:15.248Z,1
2022-12-27T06:50:58.891Z,0
2022-12-27T06:52:42.572Z,0
2022-12-27T06:54:26.366Z,0
2022-12-27T06:56:09.966Z,1
2022-12-27T06:57:53.680Z,1
2022-12-27T06:59:37.385Z,1
2022-12-27T07:01:21.130Z,1
2022-12-27T07:03:04.840Z,0
2022-12-27T07:04:48.612Z,2
2022-12-27T07:06:32.326Z,2
2022-12-27T07:08:15.891Z,3
2022-12-27T07:09:59.604Z,3
2022-12-27T07:11:43.307Z,3
2022-12-27T07:13:27.038Z,3
2022-12-27T07:15:10.725Z,3
2022-12-27T07:16:54.458Z,4
2022-12-27T07:18:38.127Z,5
2022-12-27T07:20:21.824Z,6
2022-12-27T07:22:05.624Z,6
2022-12-27T07:23:49.290Z,7
2022-12-27T07:25:32.934Z,6
2022-12-27T07:27:16.661Z,7
2022-12-27T07:29:00.376Z,6
2022-12-27T07:30:44.048Z,9
2022-12-27T07:32:27.772Z,10
2022-12-27T07:34:11.534Z,10
2022-12-27T07:35:55.155Z,11
2022-12-27T07:37:38.869Z,11
2022-12-27T07:39:22.579Z,12
2022-12-27T07:41:06.310Z,12
2022-12-27T07:42:50.037Z,13
2022-12-27T07:44:33.676Z,12
2022-12-27T07:46:17.372Z,13
2022-12-27T07:48:01.075Z,14
2022-12-27T07:49:44.830Z,14
2022-12-27T07:51:28.588Z,16
2022-12-27T07:53:12.249Z,17
2022-12-27T07:54:55.965Z,19
2022-12-27T07:56:39.584Z,20
2022-12-27T07:58:23.275Z,22
2022-12-27T08:00:07.131Z,23
2022-12-27T08:01:50.761Z,25
2022-12-27T08:03:34.492Z,25
2022-12-27T08:05:18.149Z,27
2022-12-27T08:07:01.889Z,28
2022-12-27T08:08:45.499Z,29
2022-12-27T08:10:29.244Z,29
2022-12-27T08:12:12.986Z,31
2022-12-27T08:13:56.708Z,31
2022-12-27T08:15:40.417Z,31
2022-12-27T08:17:24.056Z,31
2022-12-27T08:19:07.761Z,32
2022-12-27T08:20:51.419Z,33
2022-12-27T08:22:35.104Z,33
2022-12-27T08:24:18.880Z,33
2022-12-27T08:26:02.504Z,33
2022-12-27T08:27:46.479Z,35
2022-12-27T08:29:30.056Z,586
2022-12-27T08:31:13.619Z,593
2022-12-27T08:32:57.343Z,581
2022-12-27T08:34:41.016Z,596
2022-12-27T08:36:24.704Z,580
2022-12-27T08:38:08.410Z,560
2022-12-27T08:39:52.185Z,571
2022-12-27T08:41:35.828Z,581
2022-12-27T08:43:19.573Z,581
2022-12-27T08:45:03.213Z,591
2022-12-27T08:48:30.647Z,662
2022-12-27T08:50:14.319Z,697
2022-12-27T08:51:58.095Z,674
2022-12-27T08:53:41.747Z,659
2022-12-27T08:55:25.430Z,666
2022-12-27T08:57:09.254Z,667
2022-12-27T08:58:52.842Z,671
2022-12-27T09:00:36.575Z,661
2022-12-27T09:02:20.263Z,639
2022-12-27T09:04:03.952Z,641
2022-12-27T09:05:47.650Z,668
2022-12-27T09:07:31.582Z,643
2022-12-27T09:10:58.750Z,664
2022-12-27T09:12:42.464Z,691
2022-12-27T09:14:26.157Z,719
2022-12-27T09:16:09.875Z,743
2022-12-27T09:17:53.636Z,737
2022-12-27T09:19:37.286Z,715
2022-12-27T09:21:20.967Z,685
2022-12-27T09:23:04.688Z,695
2022-12-27T09:24:48.541Z,736
2022-12-27T09:26:32.275Z,733
2022-12-27T09:28:15.802Z,775
2022-12-27T09:29:59.498Z,774
2022-12-27T09:31:43.269Z,775
2022-12-27T09:33:26.938Z,775
2022-12-27T09:35:10.598Z,776
2022-12-27T09:36:54.309Z,775
2022-12-27T09:38:38.045Z,775
2022-12-27T09:40:21.844Z,775
2022-12-27T09:42:05.409Z,775
2022-12-27T09:43:49.175Z,774
2022-12-27T09:45:32.807Z,775
2022-12-27T09:47:16.523Z,775
2022-12-27T09:49:00.222Z,774
2022-12-27T09:50:43.927Z,775
2022-12-27T09:52:27.624Z,774
2022-12-27T09:54:11.350Z,775
2022-12-27T09:55:55.042Z,776
2022-12-27T09:57:38.765Z,775
2022-12-27T09:59:22.440Z,776
2022-12-27T10:01:06.123Z,775
2022-12-27T10:02:49.909Z,775
2022-12-27T10:04:33.655Z,775
2022-12-27T10:06:17.228Z,775
2022-12-27T10:08:01.024Z,776
2022-12-27T10:09:44.720Z,775
2022-12-27T10:11:28.402Z,776
2022-12-27T10:13:12.089Z,776
2022-12-27T10:14:55.871Z,775
2022-12-27T10:16:39.614Z,775
2022-12-27T10:18:23.246Z,776
2022-12-27T10:20:07.069Z,776
2022-12-27T10:21:50.618Z,776
2022-12-27T10:23:34.237Z,776
2022-12-27T10:25:18.054Z,774
2022-12-27T10:27:01.641Z,776
2022-12-27T10:28:45.409Z,776
2022-12-27T10:30:29.125Z,776
2022-12-27T10:32:12.761Z,775
2022-12-27T10:33:56.580Z,776
2022-12-27T10:35:40.281Z,776
2022-12-27T10:37:24.031Z,775
2022-12-27T10:39:07.584Z,775
2022-12-27T10:40:51.277Z,775
2022-12-27T10:42:35.061Z,775
2022-12-27T10:44:18.691Z,776
2022-12-27T10:46:02.419Z,776
2022-12-27T10:47:46.078Z,776
2022-12-27T10:49:29.803Z,776
2022-12-27T10:51:13.494Z,775
2022-12-27T10:52:57.189Z,775
2022-12-27T10:54:40.880Z,776
2022-12-27T10:56:24.685Z,776
2022-12-27T10:58:08.405Z,776
2022-12-27T10:59:52.076Z,776
2022-12-27T11:01:35.823Z,776
2022-12-27T11:03:19.401Z,775
2022-12-27T11:05:03.137Z,775
2022-12-27T11:06:46.798Z,776
2022-12-27T11:08:30.491Z,775
2022-12-27T11:10:14.326Z,776
2022-12-27T11:11:57.973Z,777
2022-12-27T11:13:41.703Z,774
2022-12-27T11:15:25.337Z,754
2022-12-27T11:17:09.075Z,748
2022-12-27T11:18:52.796Z,752
2022-12-27T11:20:36.428Z,776
2022-12-27T11:22:20.137Z,775
2022-12-27T11:24:03.871Z,775
2022-12-27T11:25:47.504Z,773
2022-12-27T11:27:31.344Z,775
2022-12-27T11:29:15.007Z,776
2022-12-27T11:30:58.685Z,775
2022-12-27T11:32:42.313Z,772
2022-12-27T11:34:26.131Z,776
2022-12-27T11:36:09.748Z,776
2022-12-27T11:37:53.515Z,776
2022-12-27T11:39:37.231Z,775
2022-12-27T11:41:20.830Z,775
2022-12-27T11:43:04.581Z,776
2022-12-27T11:44:48.312Z,776
2022-12-27T11:46:32.002Z,754
2022-12-27T11:48:15.687Z,776
2022-12-27T11:49:59.378Z,776
2022-12-27T11:51:43.058Z,765
2022-12-27T11:53:26.811Z,769
2022-12-27T11:55:10.467Z,775
2022-12-27T11:56:54.216Z,710
2022-12-27T11:58:37.892Z,776
2022-12-27T12:00:21.632Z,776
2022-12-27T12:02:05.273Z,776
2022-12-27T12:03:49.120Z,776
2022-12-27T12:05:32.679Z,776
2022-12-27T12:07:16.392Z,776
2022-12-27T12:09:00.087Z,776
2022-12-27T12:10:43.844Z,776
2022-12-27T12:12:27.611Z,776
2022-12-27T12:14:11.252Z,776
2022-12-27T12:15:54.898Z,776
2022-12-27T12:17:38.708Z,776
2022-12-27T12:19:22.357Z,775
2022-12-27T12:21:06.060Z,775
2022-12-27T12:22:49.778Z,775
2022-12-27T12:24:33.518Z,776
2022-12-27T12:26:17.120Z,776
2022-12-27T12:28:00.830Z,775
2022-12-27T12:29:44.611Z,775
2022-12-27T12:31:28.233Z,775
2022-12-27T12:33:11.987Z,776
2022-12-27T12:34:55.639Z,776
2022-12-27T12:36:39.343Z,776
2022-12-27T12:38:23.053Z,776
2022-12-27T12:40:06.765Z,775
2022-12-27T12:41:50.551Z,775
2022-12-27T12:43:34.211Z,775
2022-12-27T12:45:17.865Z,776
2022-12-27T12:47:01.618Z,776
2022-12-27T12:48:45.299Z,775
2022-12-27T12:50:28.985Z,776
2022-12-27T12:52:12.685Z,775
2022-12-27T12:53:56.428Z,775
2022-12-27T12:55:40.200Z,774
2022-12-27T12:57:23.779Z,776
2022-12-27T12:59:07.514Z,775
2022-12-27T13:00:51.204Z,776
2022-12-27T13:02:34.947Z,773
2022-12-27T13:04:18.669Z,776
2022-12-27T13:06:02.432Z,776
2022-12-27T13:07:45.997Z,776
2022-12-27T13:09:29.705Z,774
2022-12-27T13:11:13.460Z,775
2022-12-27T13:12:57.175Z,776
2022-12-27T13:14:40.811Z,775
2022-12-27T13:16:24.542Z,776
2022-12-27T13:18:08.226Z,775
2022-12-27T13:19:51.894Z,776
2022-12-27T13:21:35.638Z,776
2022-12-27T13:23:19.318Z,776
2022-12-27T13:25:02.999Z,776
2022-12-27T13:26:46.718Z,776
2022-12-27T13:28:30.415Z,775
2022-12-27T13:30:14.119Z,776
2022-12-27T13:31:57.816Z,777
2022-12-27T13:33:41.516Z,775
2022-12-27T13:35:25.218Z,776
2022-12-27T13:37:08.930Z,776
2022-12-27T13:38:52.610Z,776
2022-12-27T13:40:36.313Z,776
2022-12-27T13:42:20.052Z,776
2022-12-27T13:44:03.740Z,776
2022-12-27T13:45:47.442Z,776
2022-12-27T13:47:31.103Z,776
2022-12-27T13:49:14.816Z,776
2022-12-27T13:50:58.520Z,776
2022-12-27T13:52:42.217Z,776
2022-12-27T13:54:25.921Z,777
2022-12-27T13:56:09.615Z,777
2022-12-27T13:57:53.314Z,777
2022-12-27T13:59:37.018Z,775
2022-12-27T14:01:20.725Z,776
2022-12-27T14:03:04.414Z,776
2022-12-27T14:04:48.124Z,776
2022-12-27T14:06:31.828Z,775
2022-12-27T14:08:15.515Z,776
2022-12-27T14:09:59.292Z,776
2022-12-27T14:11:42.974Z,776
2022-12-27T14:13:26.627Z,776
2022-12-27T14:15:10.409Z,776
2022-12-27T14:16:54.057Z,776
2022-12-27T14:18:37.803Z,773
2022-12-27T14:20:21.440Z,776
2022-12-27T14:22:05.161Z,758
2022-12-27T14:23:48.879Z,704
2022-12-27T14:25:32.556Z,645
2022-12-27T14:27:16.400Z,522
2022-12-27T14:28:59.953Z,549
2022-12-27T14:30:43.644Z,567
2022-12-27T14:32:27.349Z,605
2022-12-27T14:34:11.061Z,622
2022-12-27T14:35:54.767Z,600
2022-12-27T14:37:38.466Z,569
2022-12-27T14:39:22.150Z,545
2022-12-27T14:41:05.867Z,462
2022-12-27T14:42:49.581Z,406
2022-12-27T14:44:33.277Z,373
2022-12-27T14:46:16.981Z,339
2022-12-27T14:48:00.699Z,340
2022-12-27T14:49:44.365Z,345
2022-12-27T14:51:28.084Z,345
2022-12-27T14:53:11.770Z,330
2022-12-27T14:54:55.499Z,308
2022-12-27T14:56:39.179Z,275
2022-12-27T14:58:22.878Z,250
2022-12-27T15:00:06.583Z,247
2022-12-27T15:01:50.279Z,220
2022-12-27T15:03:33.990Z,199
2022-12-27T15:05:17.745Z,188
2022-12-27T15:07:01.368Z,178
2022-12-27T15:08:45.085Z,172
2022-12-27T15:10:28.780Z,161
2022-12-27T15:12:12.493Z,145
2022-12-27T15:13:56.227Z,125
2022-12-27T15:15:39.892Z,106
2022-12-27T15:17:23.597Z,93
2022-12-27T15:19:07.291Z,82
2022-12-27T15:20:51.020Z,76
2022-12-27T15:22:34.750Z,775
2022-12-27T15:24:18.413Z,776
2022-12-27T15:26:02.088Z,775
2022-12-27T15:27:45.786Z,774
2022-12-27T15:29:29.491Z,775
2022-12-27T15:31:13.272Z,775
2022-12-27T15:32:56.910Z,774
2022-12-27T15:34:40.681Z,775
2022-12-27T15:36:24.300Z,775
2022-12-27T15:38:08.086Z,775
2022-12-27T15:39:51.708Z,775
2022-12-27T15:41:35.403Z,775
2022-12-27T15:43:19.106Z,775
2022-12-27T15:45:02.813Z,775
2022-12-27T15:46:46.528Z,775
2022-12-27T15:48:30.271Z,775
2022-12-27T15:50:13.905Z,775
2022-12-27T15:51:57.617Z,775
2022-12-27T15:53:41.377Z,774
2022-12-27T15:55:25.008Z,775
2022-12-27T15:57:08.711Z,775
2022-12-27T15:58:52.574Z,775
2022-12-27T16:00:36.170Z,775
2022-12-27T16:02:19.822Z,774
2022-12-27T16:04:03.506Z,774
2022-12-27T16:05:47.212Z,775
2022-12-27T16:07:30.928Z,775
2022-12-27T16:09:14.617Z,775
2022-12-27T16:10:58.320Z,774
2022-12-27T16:12:42.027Z,775
2022-12-27T16:14:25.754Z,774
2022-12-27T16:16:09.401Z,775
2022-12-27T16:17:53.142Z,774
2022-12-27T16:19:36.831Z,774
2022-12-27T16:21:20.532Z,774
2022-12-27T16:23:04.224Z,775
2022-12-27T16:24:47.963Z,776
2022-12-27T16:26:31.684Z,774
2022-12-27T16:28:15.342Z,775
2022-12-27T16:29:59.022Z,775
2022-12-27T16:31:42.827Z,775
2022-12-27T16:33:26.440Z,775
2022-12-27T16:35:10.251Z,775
2022-12-27T16:36:53.833Z,775
2022-12-27T16:38:37.544Z,775
2022-12-27T16:40:21.266Z,775
2022-12-27T16:42:04.954Z,775
2022-12-27T16:43:48.662Z,774
2022-12-27T16:45:32.412Z,775
2022-12-27T16:47:16.094Z,774
2022-12-27T16:48:59.820Z,774
2022-12-27T16:50:43.565Z,775
2022-12-27T16:52:27.243Z,775
2022-12-27T16:54:10.933Z,775
2022-12-27T16:55:54.712Z,775
2022-12-27T16:57:38.332Z,775
2022-12-27T16:59:22.070Z,775
2022-12-27T17:01:05.855Z,776
2022-12-27T17:02:49.603Z,773
2022-12-27T17:04:33.097Z,776
2022-12-27T17:06:16.824Z,775
2022-12-27T17:08:00.569Z,775
2022-12-27T17:09:44.210Z,773
2022-12-27T17:11:27.895Z,775
2022-12-27T17:13:11.625Z,774
2022-12-27T17:14:55.320Z,775
2022-12-27T17:16:38.981Z,775
2022-12-27T17:18:22.677Z,776
2022-12-27T17:20:06.404Z,775
2022-12-27T17:21:50.142Z,775
2022-12-27T17:23:33.803Z,774
2022-12-27T17:25:17.503Z,775
2022-12-27T17:27:01.261Z,776
2022-12-27T17:28:44.933Z,775
2022-12-27T17:30:28.611Z,775
2022-12-27T17:32:12.318Z,776
2022-12-27T17:33:56.072Z,775
2022-12-27T17:35:39.731Z,775
2022-12-27T17:37:23.434Z,775
2022-12-27T17:39:07.200Z,776
2022-12-27T17:40:50.882Z,775
2022-12-27T17:42:34.530Z,776
2022-12-27T17:44:18.227Z,776
2022-12-27T17:46:02.040Z,775
2022-12-27T17:47:45.682Z,775
2022-12-27T17:49:29.388Z,775
2022-12-27T17:51:13.054Z,775
2022-12-27T17:52:56.752Z,775
2022-12-27T17:54:40.472Z,774
2022-12-27T17:56:24.161Z,775
2022-12-27T17:58:07.862Z,775
2022-12-27T17:59:51.571Z,775
2022-12-27T18:01:35.272Z,775
2022-12-27T18:03:18.992Z,775
2022-12-27T18:05:02.677Z,774
2022-12-27T18:06:46.376Z,775
2022-12-27T18:08:30.080Z,775
2022-12-27T18:10:13.788Z,775
2022-12-27T18:11:57.489Z,775
2022-12-27T18:13:41.198Z,775
2022-12-27T18:15:24.897Z,775
2022-12-27T18:17:08.622Z,775
2022-12-27T18:18:52.323Z,773
2022-12-27T18:20:35.989Z,775
2022-12-27T18:22:19.710Z,775
2022-12-27T18:24:03.444Z,775
2022-12-27T18:25:47.125Z,773
2022-12-27T18:27:30.817Z,775
2022-12-27T18:29:14.518Z,775
2022-12-27T18:30:58.236Z,774
2022-12-27T18:32:41.932Z,775
2022-12-27T18:34:25.628Z,775
2022-12-27T18:36:09.379Z,775
2022-12-27T18:37:53.028Z,775
2022-12-27T18:39:36.734Z,775
2022-12-27T18:41:20.535Z,775
2022-12-27T18:43:04.163Z,775
2022-12-27T18:44:47.855Z,775
2022-12-27T18:46:31.544Z,775
2022-12-27T18:48:15.261Z,2
2022-12-27T18:49:58.956Z,3
2022-12-27T18:51:42.699Z,3
2022-12-27T18:53:26.357Z,3
2022-12-27T18:55:10.075Z,3
2022-12-27T18:56:53.763Z,2
2022-12-27T18:58:37.510Z,2
2022-12-27T19:00:21.176Z,3
2022-12-27T19:02:04.868Z,2
2022-12-27T19:03:48.574Z,3
2022-12-27T19:05:32.301Z,2
2022-12-27T19:07:15.991Z,2
2022-12-27T19:08:59.699Z,3
2022-12-27T19:10:43.410Z,3
2022-12-27T19:12:27.197Z,3
2022-12-27T19:14:10.799Z,2
2022-12-27T19:15:54.513Z,3
2022-12-27T19:17:38.368Z,2
2022-12-27T19:19:21.917Z,3
2022-12-27T19:21:05.614Z,2
2022-12-27T19:22:49.335Z,3
2022-12-27T19:24:33.036Z,2
2022-12-27T19:26:16.760Z,2
2022-12-27T19:28:00.437Z,2
2022-12-27T19:29:44.145Z,2
2022-12-27T19:31:27.826Z,3
2022-12-27T19:33:11.525Z,3
2022-12-27T19:34:55.246Z,2
2022-12-27T19:36:38.987Z,3
2022-12-27T19:38:22.636Z,3
2022-12-27T19:40:06.396Z,2
2022-12-27T19:41:50.051Z,3
2022-12-27T19:43:33.853Z,2
2022-12-27T19:45:17.452Z,2
2022-12-27T19:47:01.163Z,3
2022-12-27T19:48:44.866Z,3
2022-12-27T19:50:28.562Z,3
2022-12-27T19:52:12.258Z,3
2022-12-27T19:53:56.160Z,3
2022-12-27T19:55:39.815Z,3
2022-12-27T19:57:23.533Z,2
2022-12-27T19:59:07.144Z,3
2022-12-27T20:00:50.939Z,3
2022-12-27T20:02:34.669Z,3
2022-12-27T20:04:18.372Z,3
2022-12-27T20:06:01.872Z,3
2022-12-27T20:07:45.777Z,3
2022-12-27T20:09:29.402Z,3
2022-12-27T20:11:13.147Z,3
2022-12-27T20:12:56.849Z,3
2022-12-27T20:14:40.595Z,3
2022-12-27T20:16:24.245Z,3
2022-12-27T20:18:07.850Z,3
2022-12-27T20:19:51.590Z,3
2022-12-27T20:21:35.345Z,3
2022-12-27T20:23:18.925Z,3
2022-12-27T20:25:02.681Z,3
2022-12-27T20:26:46.389Z,3
2022-12-27T20:28:30.032Z,3
2022-12-27T20:30:13.745Z,2
2022-12-27T20:31:57.532Z,3
2022-12-27T20:33:41.117Z,3
2022-12-27T20:35:24.894Z,3
2022-12-27T20:37:08.518Z,3
2022-12-27T20:38:52.307Z,3
2022-12-27T20:40:35.979Z,2
2022-12-27T20:42:19.768Z,3
2022-12-27T20:44:03.398Z,3
2022-12-27T20:45:47.014Z,3
2022-12-27T20:47:30.728Z,3
2022-12-27T20:49:14.442Z,3
2022-12-27T20:50:58.162Z,3
2022-12-27T20:52:42.057Z,3
2022-12-27T20:54:25.524Z,2
2022-12-27T20:56:09.230Z,2
2022-12-27T20:57:52.934Z,3
2022-12-27T20:59:36.638Z,3
2022-12-27T21:01:20.330Z,2
2022-12-27T21:03:04.056Z,3
2022-12-27T21:04:47.737Z,3
2022-12-27T21:06:31.450Z,3
2022-12-27T21:08:15.152Z,3
2022-12-27T21:09:58.861Z,2
2022-12-27T21:11:42.547Z,2
2022-12-27T21:13:26.255Z,3
2022-12-27T21:15:09.972Z,3
2022-12-27T21:16:53.668Z,3
2022-12-27T21:18:37.377Z,3
2022-12-27T21:20:21.072Z,3
2022-12-27T21:23:48.495Z,3
2022-12-27T21:25:32.184Z,3
2022-12-27T21:27:15.874Z,2
2022-12-27T21:28:59.598Z,3
2022-12-27T21:30:43.318Z,2
2022-12-27T21:32:26.987Z,3
2022-12-27T21:34:10.693Z,3
2022-12-27T21:35:54.395Z,3
2022-12-27T21:37:38.098Z,3
2022-12-27T21:39:21.804Z,3
2022-12-27T21:41:05.516Z,2
2022-12-27T21:42:49.225Z,3
2022-12-27T21:44:32.963Z,2
2022-12-27T21:46:16.604Z,3
2022-12-27T21:48:00.310Z,2
2022-12-27T21:49:44.014Z,3
2022-12-27T21:51:27.719Z,3
2022-12-27T21:53:11.438Z,3
2022-12-27T21:54:55.121Z,3
2022-12-27T21:56:39.107Z,3
2022-12-27T21:58:22.554Z,3
2022-12-27T22:00:06.219Z,3
2022-12-27T22:01:49.921Z,3
2022-12-27T22:03:33.634Z,4
2022-12-27T22:05:17.322Z,2
2022-12-27T22:07:01.098Z,0
2022-12-27T22:08:44.739Z,3
2022-12-27T22:10:28.418Z,3
2022-12-27T22:12:12.352Z,3
2022-12-27T22:13:55.828Z,1
2022-12-27T22:15:39.569Z,3
2022-12-27T22:17:23.230Z,3
2022-12-27T22:19:06.932Z,3
2022-12-27T22:20:50.633Z,3
2022-12-27T22:22:34.316Z,2
2022-12-27T22:24:18.095Z,2
2022-12-27T22:26:01.752Z,2
2022-12-27T22:27:45.409Z,2
2022-12-27T22:29:29.119Z,2
2022-12-27T22:31:12.839Z,3
2022-12-27T22:32:56.532Z,3
2022-12-27T22:34:40.369Z,3
2022-12-27T22:36:23.920Z,2
2022-12-27T22:38:07.642Z,2
2022-12-27T22:39:51.356Z,2
2022-12-27T22:41:35.031Z,3
2022-12-27T22:43:18.750Z,2
2022-12-27T22:45:02.460Z,3
2022-12-27T22:46:46.151Z,3
2022-12-27T22:48:29.843Z,3
2022-12-27T22:50:13.567Z,2
2022-12-27T22:51:57.268Z,3
2022-12-27T22:53:40.976Z,3
2022-12-27T22:55:24.689Z,3
2022-12-27T22:57:08.358Z,5
2022-12-27T23:00:35.791Z,3
2022-12-27T23:02:19.472Z,3
2022-12-27T23:04:03.188Z,2
2022-12-27T23:05:46.886Z,3
2022-12-27T23:07:30.581Z,3
2022-12-27T23:09:14.287Z,82
2022-12-27T23:10:57.977Z,3
2022-12-27T23:12:41.704Z,2
2022-12-27T23:14:25.402Z,2
2022-12-27T23:16:09.094Z,2
2022-12-27T23:19:36.495Z,2
2022-12-27T23:21:20.218Z,3
2022-12-27T23:23:03.917Z,3
2022-12-27T23:24:47.607Z,2
2022-12-27T23:26:31.375Z,2
2022-12-27T23:28:15.018Z,1
2022-12-27T23:29:58.727Z,3
2022-12-27T23:31:42.421Z,2
2022-12-27T23:33:26.219Z,1
2022-12-27T23:35:09.830Z,2
2022-12-27T23:36:53.539Z,2
2022-12-27T23:38:37.246Z,1
2022-12-27T23:40:20.950Z,1
2022-12-27T23:42:04.630Z,0
2022-12-27T23:43:48.334Z,0
2022-12-27T23:45:32.032Z,1
2022-12-27T23:47:15.781Z,0
2022-12-27T23:48:59.448Z,1
2022-12-27T23:50:43.151Z,0
2022-12-27T23:52:26.846Z,0
2022-12-27T23:54:10.555Z,0
2022-12-27T23:55:54.273Z,1
2022-12-27T23:57:37.965Z,1
2022-12-27T23:59:21.670Z,1
